Time;durP1;ratioP1;P1;durP2;ratioP2;P2;SDS_P1;SDS_P2;PMS_P1;PMS_P2;Temp;Humidity;BMP_temperature;BMP_pressure;BME280_temperature;BME280_humidity;BME280_pressure;Samples;Min_cycle;Max_cycle;Signal;HPM_P1;HPM_P2
2022/04/29 00:00:36;;;;;;;9.98;1.98;;;6.90;99.90;;;;;;5109606;28;20059;-75
2022/04/29 00:03:02;;;;;;;6.30;2.92;;;7.10;99.90;;;;;;5108001;28;20550;-75
2022/04/29 00:05:28;;;;;;;6.05;2.20;;;6.90;99.90;;;;;;5109676;28;20051;-78
2022/04/29 00:07:54;;;;;;;8.40;2.55;;;6.90;99.90;;;;;;5109236;28;20036;-77
2022/04/29 00:10:20;;;;;;;17.23;2.88;;;6.90;99.90;;;;;;5109993;28;20547;-77
2022/04/29 00:12:48;;;;;;;7.60;2.00;;;6.90;99.90;;;;;;5091086;28;20439;-73
2022/04/29 00:15:15;;;;;;;7.25;1.92;;;6.90;99.90;;;;;;5108590;28;20112;-79
2022/04/29 00:17:42;;;;;;;5.75;2.53;;;6.90;99.90;;;;;;5110432;28;20047;-77
2022/04/29 00:20:09;;;;;;;6.22;2.17;;;6.90;99.90;;;;;;5108845;28;20040;-73
2022/04/29 00:22:35;;;;;;;6.25;2.53;;;6.90;99.90;;;;;;5109675;27;20099;-77
2022/04/29 00:25:01;;;;;;;7.70;2.15;;;7.00;99.90;;;;;;5108805;28;20165;-77
2022/04/29 00:27:27;;;;;;;9.63;2.28;;;6.90;99.90;;;;;;5102012;28;20518;-75
2022/04/29 00:29:53;;;;;;;7.15;2.63;;;6.60;99.90;;;;;;5109216;28;20043;-75
2022/04/29 00:32:19;;;;;;;7.28;2.60;;;6.90;99.90;;;;;;5108286;28;20047;-75
2022/04/29 00:34:44;;;;;;;7.55;2.35;;;6.60;99.90;;;;;;5091924;28;20044;-74
2022/04/29 00:37:10;;;;;;;8.15;2.10;;;7.00;99.90;;;;;;5109114;28;20103;-74
2022/04/29 00:39:37;;;;;;;9.90;2.80;;;6.90;99.90;;;;;;5108767;28;20054;-78
2022/04/29 00:42:17;;;;;;;7.35;2.30;;;6.90;99.90;;;;;;5108191;28;20109;-73
2022/04/29 00:44:44;;;;;;;11.80;2.55;;;6.90;99.90;;;;;;5101395;28;20035;-76
2022/04/29 00:47:18;;;;;;;12.73;2.30;;;7.00;99.90;;;;;;5109585;28;20509;-74
2022/04/29 00:49:44;;;;;;;7.60;2.00;;;6.90;99.90;;;;;;5108313;28;20063;-74
2022/04/29 00:52:19;;;;;;;5.35;2.55;;;6.90;99.90;;;;;;5107278;28;20507;-74
2022/04/29 00:54:52;;;;;;;7.82;2.97;;;7.00;99.90;;;;;;5108277;28;20475;-76
2022/04/29 00:57:58;;;;;;;6.63;2.13;;;6.90;99.90;;;;;;5109009;28;20499;-74
2022/04/29 01:00:23;;;;;;;8.80;2.85;;;7.40;99.90;;;;;;5088170;28;20060;-78
2022/04/29 01:02:52;;;;;;;10.70;2.70;;;6.90;99.90;;;;;;5090806;28;20039;-79
2022/04/29 01:05:20;;;;;;;9.90;3.22;;;6.90;99.90;;;;;;5108103;28;20091;-73
2022/04/29 01:07:47;;;;;;;7.32;3.35;;;6.90;99.90;;;;;;5109203;28;20472;-74
2022/04/29 01:10:14;;;;;;;4.75;2.65;;;6.90;99.90;;;;;;5108922;27;20040;-74
2022/04/29 01:12:42;;;;;;;3.92;2.08;;;7.80;99.90;;;;;;5107401;28;20039;-74
2022/04/29 01:15:13;;;;;;;9.07;1.98;;;6.80;99.90;;;;;;5090873;28;20044;-76
2022/04/29 01:17:41;;;;;;;7.63;2.63;;;6.70;99.90;;;;;;5091241;28;20035;-74
2022/04/29 01:20:09;;;;;;;7.97;2.60;;;6.70;99.90;;;;;;5107157;28;20039;-74
2022/04/29 01:22:35;;;;;;;7.78;2.83;;;6.70;99.90;;;;;;5107780;28;20039;-74
2022/04/29 01:25:02;;;;;;;7.35;2.33;;;6.60;99.90;;;;;;5090897;28;20047;-76
2022/04/29 01:27:28;;;;;;;6.85;3.13;;;6.60;99.90;;;;;;5108748;28;20070;-77
2022/04/29 01:30:07;;;;;;;10.25;2.65;;;6.60;99.90;;;;;;5108690;28;20398;-77
2022/04/29 01:32:34;;;;;;;5.05;2.60;;;6.70;99.90;;;;;;5100096;28;20050;-76
2022/04/29 01:35:00;;;;;;;6.00;2.25;;;6.60;99.90;;;;;;5090383;28;20115;-74
2022/04/29 01:37:26;;;;;;;7.82;2.40;;;6.60;99.90;;;;;;5107594;28;20040;-77
2022/04/29 01:39:51;;;;;;;7.65;2.78;;;6.50;99.90;;;;;;5107957;28;20509;-74
2022/04/29 01:42:17;;;;;;;3.90;2.03;;;6.60;99.90;;;;;;5108644;28;20426;-75
2022/04/29 01:44:43;;;;;;;9.13;2.42;;;6.60;99.90;;;;;;5107555;28;20448;-73
2022/04/29 01:47:09;;;;;;;11.18;2.80;;;6.50;99.90;;;;;;5106456;28;20155;-77
2022/04/29 01:49:34;;;;;;;7.00;2.42;;;6.60;99.90;;;;;;5108668;28;20071;-74
2022/04/29 01:52:00;;;;;;;4.68;2.42;;;6.50;99.90;;;;;;5107782;28;20043;-78
2022/04/29 01:54:27;;;;;;;10.35;3.17;;;6.00;99.90;;;;;;5090201;28;20467;-78
2022/04/29 01:56:53;;;;;;;5.97;2.30;;;6.40;99.90;;;;;;5108633;28;20047;-74
2022/04/29 01:59:19;;;;;;;6.47;2.53;;;6.40;99.90;;;;;;5108881;28;20117;-73
2022/04/29 02:01:46;;;;;;;4.78;2.75;;;7.80;99.90;;;;;;5107368;27;20092;-74
2022/04/29 02:04:12;;;;;;;5.05;2.90;;;6.40;99.90;;;;;;5108157;28;20495;-77
2022/04/29 02:06:38;;;;;;;10.77;2.72;;;6.30;99.90;;;;;;5107285;28;20506;-73
2022/04/29 02:09:05;;;;;;;9.68;2.55;;;6.30;99.90;;;;;;5106112;28;20039;-77
2022/04/29 02:11:31;;;;;;;5.80;2.72;;;6.30;99.90;;;;;;5106902;28;20036;-74
2022/04/29 02:13:56;;;;;;;8.35;2.65;;;6.30;99.90;;;;;;5089891;28;20044;-74
2022/04/29 02:16:22;;;;;;;4.53;2.40;;;6.30;99.90;;;;;;5107952;28;20050;-77
2022/04/29 02:18:48;;;;;;;9.75;2.90;;;6.30;99.90;;;;;;5106910;28;20471;-75
2022/04/29 02:21:13;;;;;;;4.53;2.35;;;6.30;99.90;;;;;;5106930;28;20365;-76
2022/04/29 02:23:39;;;;;;;11.00;2.95;;;6.30;99.90;;;;;;5108111;28;20032;-74
2022/04/29 02:26:05;;;;;;;7.80;2.83;;;6.30;99.90;;;;;;5107979;28;20043;-73
2022/04/29 02:28:32;;;;;;;6.38;3.00;;;6.30;99.90;;;;;;5108616;28;20047;-74
2022/04/29 02:30:58;;;;;;;7.20;2.92;;;6.20;99.90;;;;;;5107036;28;20053;-77
2022/04/29 02:33:24;;;;;;;5.47;2.70;;;7.10;99.90;;;;;;5106906;28;20176;-78
2022/04/29 02:35:50;;;;;;;4.65;2.45;;;6.20;99.90;;;;;;5110526;28;20106;-74
2022/04/29 02:38:15;;;;;;;6.88;2.67;;;6.20;99.90;;;;;;5111177;28;20039;-74
2022/04/29 02:40:41;;;;;;;7.35;2.72;;;6.20;99.90;;;;;;5112856;28;20616;-74
2022/04/29 02:43:07;;;;;;;7.25;2.88;;;6.20;99.90;;;;;;5110936;28;20035;-78
2022/04/29 02:45:33;;;;;;;11.05;3.67;;;6.20;99.90;;;;;;5111096;28;20031;-77
2022/04/29 02:47:58;;;;;;;6.32;3.30;;;6.20;99.90;;;;;;5110411;28;20043;-78
2022/04/29 02:50:25;;;;;;;7.90;3.28;;;6.20;99.90;;;;;;5111410;28;20055;-76
2022/04/29 02:52:51;;;;;;;7.13;3.08;;;6.20;99.90;;;;;;5093125;28;20044;-77
2022/04/29 02:55:17;;;;;;;6.75;2.90;;;6.20;99.90;;;;;;5110969;28;20047;-75
2022/04/29 02:57:42;;;;;;;12.13;3.38;;;6.20;99.90;;;;;;5110506;28;20134;-74
2022/04/29 03:00:09;;;;;;;8.65;3.33;;;6.20;99.90;;;;;;5110815;28;20078;-74
2022/04/29 03:02:34;;;;;;;10.20;3.38;;;6.20;99.90;;;;;;5093282;28;20040;-77
2022/04/29 03:05:00;;;;;;;9.23;3.05;;;6.10;99.90;;;;;;5109660;28;20119;-77
2022/04/29 03:07:25;;;;;;;4.13;2.83;;;6.00;99.90;;;;;;5112046;28;20132;-74
2022/04/29 03:09:51;;;;;;;9.32;3.60;;;6.20;99.90;;;;;;5111397;28;20023;-77
2022/04/29 03:12:17;;;;;;;8.63;3.58;;;6.20;99.90;;;;;;5109424;28;20046;-74
2022/04/29 03:14:42;;;;;;;9.25;4.30;;;6.20;99.90;;;;;;5110172;28;20043;-74
2022/04/29 03:18:18;;;;;;;10.65;4.00;;;6.20;99.90;;;;;;5110165;28;20046;-76
2022/04/29 03:19:58;;;;;;;10.55;3.70;;;6.10;99.90;;;;;;5103555;28;20127;-76
2022/04/29 03:22:25;;;;;;;8.57;4.15;;;7.50;99.90;;;;;;5109817;28;20039;-77
2022/04/29 03:24:51;;;;;;;7.90;3.63;;;6.30;99.90;;;;;;5109983;28;20040;-75
2022/04/29 03:27:17;;;;;;;6.70;4.00;;;6.30;99.90;;;;;;5111135;28;20101;-74
2022/04/29 03:29:42;;;;;;;8.57;4.18;;;6.30;99.90;;;;;;5110304;28;20372;-74
2022/04/29 03:32:08;;;;;;;9.60;4.32;;;6.30;99.90;;;;;;5109407;28;20035;-78
2022/04/29 03:34:34;;;;;;;8.85;4.47;;;6.30;99.90;;;;;;5111774;27;20035;-74
2022/04/29 03:36:59;;;;;;;6.68;4.18;;;7.50;99.90;;;;;;5111046;28;20084;-79
2022/04/29 03:39:25;;;;;;;9.85;4.28;;;6.30;99.90;;;;;;5109638;28;20040;-76
2022/04/29 03:41:51;;;;;;;8.23;4.68;;;6.30;99.90;;;;;;5109849;28;20143;-76
2022/04/29 03:44:16;;;;;;;8.52;4.80;;;6.30;99.90;;;;;;5110285;28;20039;-76
2022/04/29 03:46:42;;;;;;;5.10;3.90;;;6.40;99.90;;;;;;5110210;28;20036;-74
2022/04/29 03:49:35;;;;;;;8.45;4.25;;;6.40;99.90;;;;;;5111132;28;20043;-74
2022/04/29 03:52:01;;;;;;;7.22;4.47;;;6.40;99.90;;;;;;5103939;28;20075;-75
2022/04/29 03:54:26;;;;;;;6.13;4.65;;;6.40;99.90;;;;;;5110808;28;20086;-73
2022/04/29 03:56:52;;;;;;;12.68;4.55;;;6.40;99.90;;;;;;5109700;28;20085;-74
2022/04/29 03:59:18;;;;;;;6.47;4.13;;;6.40;99.90;;;;;;5110216;28;20086;-75
2022/04/29 04:01:45;;;;;;;9.07;4.35;;;6.80;99.90;;;;;;5108660;28;20044;-78
2022/04/29 04:04:10;;;;;;;10.07;4.68;;;6.40;99.90;;;;;;5109854;28;20119;-76
2022/04/29 04:06:51;;;;;;;6.75;4.35;;;6.40;99.90;;;;;;5110051;28;20126;-73
2022/04/29 04:09:19;;;;;;;14.25;4.20;;;6.50;99.90;;;;;;5109695;28;20086;-76
2022/04/29 04:11:45;;;;;;;9.63;4.40;;;6.40;99.90;;;;;;5110705;28;20042;-76
2022/04/29 04:14:10;;;;;;;11.05;4.70;;;6.40;99.90;;;;;;5092639;28;20043;-73
2022/04/29 04:16:37;;;;;;;6.40;3.92;;;6.40;99.90;;;;;;5110617;28;20043;-77
2022/04/29 04:19:03;;;;;;;8.10;4.28;;;6.40;99.90;;;;;;5109371;28;20411;-78
2022/04/29 04:21:29;;;;;;;10.40;4.30;;;6.20;99.90;;;;;;5092149;28;20108;-73
2022/04/29 04:23:54;;;;;;;10.15;4.25;;;6.40;99.90;;;;;;5110741;27;20531;-77
2022/04/29 04:26:20;;;;;;;13.43;5.13;;;6.40;99.90;;;;;;5092729;28;20546;-73
2022/04/29 04:28:46;;;;;;;7.25;4.35;;;6.40;99.90;;;;;;5109893;28;20035;-74
2022/04/29 04:31:12;;;;;;;5.93;4.80;;;6.40;99.90;;;;;;5110148;28;20522;-76
2022/04/29 04:33:38;;;;;;;7.88;4.22;;;6.50;99.90;;;;;;5109306;28;20113;-77
2022/04/29 04:36:04;;;;;;;9.30;4.47;;;6.50;99.90;;;;;;5109629;27;20035;-77
2022/04/29 04:38:31;;;;;;;4.43;3.90;;;6.50;99.90;;;;;;5092227;28;20047;-76
2022/04/29 04:40:58;;;;;;;12.90;3.83;;;8.40;99.90;;;;;;5109751;28;20432;-76
2022/04/29 04:43:24;;;;;;;5.70;4.30;;;6.50;99.90;;;;;;5108711;28;20058;-78
2022/04/29 04:45:51;;;;;;;6.90;4.10;;;6.50;99.90;;;;;;5109354;28;20118;-74
2022/04/29 04:48:17;;;;;;;9.95;5.40;;;8.00;99.90;;;;;;5091929;28;20558;-76
2022/04/29 04:50:42;;;;;;;14.63;4.82;;;7.30;99.90;;;;;;5109712;28;20131;-74
2022/04/29 04:53:08;;;;;;;7.80;4.75;;;6.60;99.90;;;;;;5110709;28;20467;-78
2022/04/29 04:55:35;;;;;;;9.98;4.72;;;6.60;99.90;;;;;;5109341;28;20051;-75
2022/04/29 04:58:01;;;;;;;8.60;5.28;;;6.60;99.90;;;;;;5108855;28;20049;-77
2022/04/29 05:00:26;;;;;;;10.75;4.63;;;6.50;99.90;;;;;;5109059;28;20047;-74
2022/04/29 05:02:52;;;;;;;6.57;4.55;;;6.50;99.90;;;;;;5107863;28;20127;-77
2022/04/29 05:05:17;;;;;;;7.90;4.90;;;6.70;99.90;;;;;;5109608;28;20065;-78
2022/04/29 05:07:43;;;;;;;6.65;4.50;;;6.70;99.90;;;;;;5108260;28;20063;-73
2022/04/29 05:10:10;;;;;;;7.53;5.25;;;6.60;99.90;;;;;;5108638;28;20069;-77
2022/04/29 05:12:43;;;;;;;7.28;4.47;;;6.80;99.90;;;;;;5109215;28;20391;-75
2022/04/29 05:15:10;;;;;;;11.55;4.93;;;6.80;99.90;;;;;;5091463;28;20491;-76
2022/04/29 05:17:38;;;;;;;8.35;4.95;;;6.90;99.90;;;;;;5108070;28;20047;-78
2022/04/29 05:20:11;;;;;;;9.77;5.05;;;6.90;99.90;;;;;;5107953;28;20495;-74
2022/04/29 05:22:37;;;;;;;8.02;4.95;;;6.90;99.90;;;;;;5107984;28;20045;-74
2022/04/29 05:25:04;;;;;;;16.27;5.13;;;7.00;99.90;;;;;;5090409;28;20199;-74
2022/04/29 05:27:30;;;;;;;10.10;5.22;;;7.00;99.90;;;;;;5108688;28;20058;-75
2022/04/29 05:29:57;;;;;;;11.60;5.65;;;7.00;99.90;;;;;;5107601;28;20040;-75
2022/04/29 05:32:25;;;;;;;7.68;4.97;;;7.00;99.90;;;;;;5107122;28;20137;-73
2022/04/29 05:34:51;;;;;;;8.23;4.55;;;7.10;99.90;;;;;;5099746;28;20096;-74
2022/04/29 05:37:17;;;;;;;6.43;5.13;;;7.10;99.90;;;;;;5109800;28;20040;-76
2022/04/29 05:42:27;;;;;;;5.78;4.80;;;7.20;99.90;;;;;;5109383;28;20047;-76
2022/04/29 05:44:53;;;;;;;9.63;5.70;;;7.20;99.90;;;;;;5108636;28;20027;-74
2022/04/29 05:47:19;;;;;;;12.13;5.43;;;7.20;99.90;;;;;;5086999;28;20047;-78
2022/04/29 05:49:45;;;;;;;7.47;4.82;;;7.20;99.90;;;;;;5108336;28;20159;-75
2022/04/29 05:52:11;;;;;;;10.13;4.65;;;7.20;99.90;;;;;;5108668;28;20039;-74
2022/04/29 05:54:37;;;;;;;9.57;4.70;;;7.20;99.90;;;;;;5108903;28;20416;-77
2022/04/29 05:57:03;;;;;;;10.55;5.45;;;7.30;99.90;;;;;;5107749;28;20487;-76
2022/04/29 05:59:30;;;;;;;6.60;4.53;;;7.30;99.90;;;;;;5090775;28;20083;-75
2022/04/29 06:01:56;;;;;;;5.72;5.22;;;7.40;99.90;;;;;;5107692;27;20035;-76
2022/04/29 06:04:21;;;;;;;27.17;14.10;;;7.40;99.90;;;;;;5108209;28;20036;-74
2022/04/29 06:06:47;;;;;;;8.07;5.95;;;7.40;99.90;;;;;;5108521;28;20122;-75
2022/04/29 06:09:13;;;;;;;7.40;5.95;;;7.40;99.90;;;;;;5107024;28;20035;-78
2022/04/29 06:11:38;;;;;;;6.30;4.90;;;7.50;99.90;;;;;;5107453;28;20047;-76
2022/04/29 06:14:04;;;;;;;12.65;5.32;;;7.50;99.90;;;;;;5106529;28;20043;-74
2022/04/29 06:16:30;;;;;;;9.75;5.20;;;7.50;99.90;;;;;;5109405;28;20256;-76
2022/04/29 06:18:56;;;;;;;9.35;4.70;;;8.40;99.90;;;;;;5108816;28;20119;-78
2022/04/29 06:21:21;;;;;;;11.85;4.90;;;7.60;99.90;;;;;;5108068;28;20032;-73
2022/04/29 06:23:48;;;;;;;9.25;4.22;;;7.60;99.90;;;;;;5108667;28;20063;-76
2022/04/29 06:26:14;;;;;;;9.95;4.55;;;7.70;99.90;;;;;;5108761;28;20039;-76
2022/04/29 06:28:40;;;;;;;8.45;5.07;;;7.70;99.90;;;;;;5106979;28;20498;-77
2022/04/29 06:31:07;;;;;;;9.02;4.90;;;7.70;99.90;;;;;;5106647;28;20047;-72
2022/04/29 06:33:33;;;;;;;12.02;4.75;;;7.80;99.90;;;;;;5107297;28;20085;-74
2022/04/29 06:36:00;;;;;;;11.63;4.05;;;7.80;99.90;;;;;;5106530;28;20430;-74
2022/04/29 06:38:25;;;;;;;8.52;3.80;;;7.90;99.90;;;;;;5090686;28;20040;-73
2022/04/29 06:40:52;;;;;;;8.15;3.95;;;8.00;99.90;;;;;;5108199;28;20087;-73
2022/04/29 06:43:22;;;;;;;5.70;3.35;;;8.00;99.90;;;;;;5106671;28;20040;-76
2022/04/29 06:45:47;;;;;;;8.63;3.33;;;8.00;99.90;;;;;;5107214;28;20047;-74
2022/04/29 06:48:13;;;;;;;11.10;3.63;;;8.10;99.90;;;;;;5090017;28;20035;-76
2022/04/29 06:50:40;;;;;;;9.93;2.80;;;8.20;99.90;;;;;;5089551;28;20043;-76
2022/04/29 06:53:06;;;;;;;4.93;2.70;;;8.20;99.90;;;;;;5106709;28;20071;-77
2022/04/29 06:55:32;;;;;;;7.28;3.10;;;8.10;99.90;;;;;;5108654;28;20499;-76
2022/04/29 06:57:58;;;;;;;10.48;3.45;;;8.30;99.90;;;;;;5106259;28;20347;-75
2022/04/29 07:00:24;;;;;;;10.15;2.58;;;8.40;99.90;;;;;;5106971;28;20102;-79
2022/04/29 07:02:49;;;;;;;5.03;2.40;;;8.40;99.90;;;;;;5089757;28;20602;-79
2022/04/29 07:05:16;;;;;;;5.10;2.50;;;8.40;99.90;;;;;;5106506;28;20390;-79
2022/04/29 07:07:41;;;;;;;5.00;2.10;;;8.40;99.90;;;;;;5108848;28;20119;-76
2022/04/29 07:10:08;;;;;;;6.90;2.28;;;8.50;99.90;;;;;;5106192;28;20111;-76
2022/04/29 07:12:42;;;;;;;3.85;2.60;;;8.50;99.90;;;;;;5088967;28;20083;-78
2022/04/29 07:15:08;;;;;;;7.80;2.20;;;8.60;99.90;;;;;;5100524;28;20418;-78
2022/04/29 07:17:34;;;;;;;6.18;2.90;;;8.60;99.90;;;;;;5089244;28;20126;-78
2022/04/29 07:19:59;;;;;;;5.72;2.50;;;8.60;99.90;;;;;;5107796;28;20130;-79
2022/04/29 07:22:25;;;;;;;6.78;2.15;;;8.70;99.90;;;;;;5111712;28;20036;-79
2022/04/29 07:24:51;;;;;;;10.07;2.35;;;8.70;99.90;;;;;;5111211;28;20114;-75
2022/04/29 07:27:16;;;;;;;4.53;2.53;;;8.80;99.90;;;;;;5094084;28;20391;-79
2022/04/29 07:29:42;;;;;;;6.80;2.33;;;8.80;99.90;;;;;;5110829;28;20047;-76
2022/04/29 07:32:08;;;;;;;10.38;2.05;;;8.80;99.90;;;;;;5092236;28;20395;-78
2022/04/29 07:42:47;;;;;;;6.65;2.20;;;8.90;99.90;;;;;;5109871;28;20044;-78
2022/04/29 07:45:12;;;;;;;3.55;2.03;;;9.00;99.90;;;;;;5092759;28;20114;-74
2022/04/29 07:47:38;;;;;;;6.43;2.63;;;9.00;99.90;;;;;;5110366;28;20093;-73
2022/04/29 07:50:05;;;;;;;6.70;2.08;;;9.10;99.90;;;;;;5109576;28;20040;-78
2022/04/29 07:52:32;;;;;;;9.60;2.08;;;9.10;99.90;;;;;;5109183;28;20142;-74
2022/04/29 07:54:57;;;;;;;10.65;2.38;;;9.20;99.90;;;;;;5109840;28;20036;-74
2022/04/29 07:57:23;;;;;;;3.65;1.90;;;9.20;99.90;;;;;;5111259;28;20048;-74
2022/04/29 07:59:49;;;;;;;8.50;2.25;;;9.20;99.90;;;;;;5110614;28;20119;-79
2022/04/29 08:02:15;;;;;;;7.13;1.77;;;9.30;99.90;;;;;;5109424;28;20034;-77
2022/04/29 08:04:41;;;;;;;10.35;1.92;;;9.30;99.90;;;;;;5109857;28;20098;-74
2022/04/29 08:07:06;;;;;;;2.53;1.45;;;9.30;99.90;;;;;;5091841;28;20079;-78
2022/04/29 08:09:32;;;;;;;4.97;1.65;;;9.30;99.90;;;;;;5075925;28;20162;-78
2022/04/29 08:11:57;;;;;;;5.03;1.08;;;9.30;99.90;;;;;;5092237;28;20035;-75
2022/04/29 08:14:23;;;;;;;5.10;1.40;;;10.80;99.90;;;;;;5110650;28;20059;-72
2022/04/29 08:16:49;;;;;;;4.43;1.05;;;10.80;99.90;;;;;;5109739;28;20089;-77
2022/04/29 08:19:15;;;;;;;4.85;1.02;;;9.40;99.90;;;;;;5109466;28;20055;-75
2022/04/29 08:21:41;;;;;;;2.85;0.77;;;9.50;99.90;;;;;;5110339;27;20047;-75
2022/04/29 08:24:06;;;;;;;5.97;1.20;;;10.80;99.90;;;;;;5109197;28;20035;-78
2022/04/29 08:26:32;;;;;;;4.18;0.85;;;9.60;99.90;;;;;;5109750;28;20043;-73
2022/04/29 08:28:58;;;;;;;4.47;0.80;;;9.70;99.90;;;;;;5073058;28;20044;-75
2022/04/29 08:31:24;;;;;;;6.75;1.23;;;9.70;99.90;;;;;;5110890;28;20043;-78
2022/04/29 08:33:50;;;;;;;2.58;0.80;;;9.80;99.90;;;;;;5108386;28;20066;-74
2022/04/29 08:36:16;;;;;;;6.80;1.38;;;9.70;99.90;;;;;;5108575;28;20036;-73
2022/04/29 08:38:42;;;;;;;4.88;1.48;;;9.80;99.90;;;;;;5109757;28;20031;-75
2022/04/29 08:41:08;;;;;;;5.07;1.15;;;9.90;99.90;;;;;;5110992;28;20067;-76
2022/04/29 08:43:35;;;;;;;2.97;1.25;;;9.90;99.90;;;;;;5109191;28;20048;-74
2022/04/29 08:46:01;;;;;;;4.60;1.25;;;9.90;99.90;;;;;;5109017;28;20150;-76
2022/04/29 08:48:31;;;;;;;4.97;1.85;;;10.00;99.90;;;;;;5109537;28;20080;-77
2022/04/29 08:51:01;;;;;;;4.35;1.15;;;10.00;99.90;;;;;;5108619;28;20044;-74
2022/04/29 08:53:27;;;;;;;8.45;1.88;;;11.50;99.90;;;;;;5109277;28;20047;-73
2022/04/29 08:58:37;;;;;;;5.13;1.37;;;10.10;99.90;;;;;;5109152;28;20550;-78
2022/04/29 09:01:15;;;;;;;4.28;1.92;;;10.50;99.90;;;;;;5109561;28;20055;-75
2022/04/29 09:03:42;;;;;;;5.80;1.50;;;10.10;99.90;;;;;;5091333;28;20043;-74
2022/04/29 09:06:08;;;;;;;5.82;1.33;;;10.10;99.90;;;;;;5108527;28;20043;-74
2022/04/29 09:08:41;;;;;;;4.20;1.00;;;10.10;99.90;;;;;;5108837;28;20161;-76
2022/04/29 09:11:07;;;;;;;2.85;0.90;;;10.30;99.90;;;;;;5107331;28;20428;-79
2022/04/29 09:13:37;;;;;;;5.40;1.25;;;10.10;99.90;;;;;;5108825;28;20036;-76
2022/04/29 09:16:12;;;;;;;5.15;1.60;;;11.20;99.90;;;;;;5109646;28;20057;-80
2022/04/29 09:18:55;;;;;;;5.68;1.48;;;10.10;99.90;;;;;;5108325;28;20059;-77
2022/04/29 09:21:30;;;;;;;2.38;1.30;;;9.20;99.90;;;;;;5101927;28;20074;-75
2022/04/29 09:23:59;;;;;;;3.35;1.42;;;10.30;99.90;;;;;;5107344;28;20382;-75
2022/04/29 09:26:33;;;;;;;6.75;1.58;;;10.20;99.90;;;;;;5108736;28;20487;-79
2022/04/29 09:29:17;;;;;;;4.55;0.98;;;10.10;99.90;;;;;;5109254;28;20035;-77
2022/04/29 09:31:54;;;;;;;3.88;1.90;;;10.20;99.90;;;;;;5090491;28;20048;-75
2022/04/29 09:34:20;;;;;;;3.58;1.20;;;10.20;99.90;;;;;;5100834;28;20045;-80
2022/04/29 09:36:47;;;;;;;4.53;1.27;;;10.20;99.90;;;;;;5107936;28;20080;-76
2022/04/29 09:39:28;;;;;;;2.67;1.20;;;10.10;99.90;;;;;;5108718;28;20287;-79
2022/04/29 09:42:01;;;;;;;2.13;0.90;;;10.10;99.90;;;;;;5107555;28;20028;-74
2022/04/29 09:44:34;;;;;;;7.43;1.60;;;10.10;99.90;;;;;;5108478;28;20069;-80
2022/04/29 09:47:19;;;;;;;4.18;1.27;;;10.10;99.90;;;;;;5089918;28;20063;-75
2022/04/29 09:49:55;;;;;;;3.50;1.00;;;10.10;99.90;;;;;;5107683;28;20055;-76
2022/04/29 09:52:22;;;;;;;2.83;1.10;;;10.10;99.90;;;;;;5099147;28;20058;-76
2022/04/29 09:54:49;;;;;;;5.50;1.55;;;10.10;99.90;;;;;;5107873;28;20549;-76
2022/04/29 09:57:27;;;;;;;8.70;1.73;;;10.10;99.90;;;;;;5090543;28;20114;-74
2022/04/29 09:59:54;;;;;;;4.70;1.55;;;10.10;99.90;;;;;;5107013;28;20039;-74
2022/04/29 10:02:26;;;;;;;8.75;1.90;;;10.10;99.90;;;;;;5066307;28;20084;-79
2022/04/29 10:04:53;;;;;;;2.25;1.38;;;10.10;99.90;;;;;;5107454;28;20130;-75
2022/04/29 10:07:21;;;;;;;4.30;1.67;;;10.10;99.90;;;;;;5100107;28;20330;-78
2022/04/29 10:09:51;;;;;;;6.78;2.08;;;10.10;99.90;;;;;;5108577;28;20404;-75
2022/04/29 10:12:19;;;;;;;8.77;2.13;;;10.00;99.90;;;;;;5107415;28;20043;-74
2022/04/29 10:14:47;;;;;;;6.50;1.95;;;11.20;99.90;;;;;;5107274;28;20044;-75
2022/04/29 10:22:51;;;;;;;3.85;1.90;;;10.30;99.90;;;;;;5108810;28;20618;-77
2022/04/29 10:25:20;;;;;;;9.02;1.70;;;10.30;99.90;;;;;;5091022;28;20071;-78
2022/04/29 10:27:48;;;;;;;3.67;1.70;;;10.20;99.90;;;;;;5107910;28;20395;-79
2022/04/29 10:30:15;;;;;;;5.45;1.92;;;10.20;99.90;;;;;;5107305;28;20046;-75
2022/04/29 10:33:12;;;;;;;6.43;1.70;;;10.30;99.90;;;;;;5107464;28;20055;-75
2022/04/29 10:35:45;;;;;;;5.18;1.90;;;10.30;99.90;;;;;;5101879;28;20407;-79
2022/04/29 10:38:22;;;;;;;7.40;2.33;;;10.30;99.90;;;;;;5090227;28;20121;-74
2022/04/29 10:41:07;;;;;;;1.55;1.40;;;10.20;99.90;;;;;;5108361;28;20097;-75
2022/04/29 10:43:38;;;;;;;5.25;2.25;;;10.20;99.90;;;;;;5100340;28;20035;-75
2022/04/29 10:46:03;;;;;;;3.80;1.77;;;10.20;99.90;;;;;;5089074;28;20419;-78
2022/04/29 10:48:48;;;;;;;2.80;1.60;;;10.20;99.90;;;;;;5107750;28;20032;-73
2022/04/29 10:51:40;;;;;;;6.88;2.00;;;10.10;99.90;;;;;;5107400;28;20083;-74
2022/04/29 10:54:05;;;;;;;2.97;1.70;;;10.20;99.90;;;;;;5097963;28;20040;-77
2022/04/29 10:56:31;;;;;;;5.03;1.42;;;10.20;99.90;;;;;;5108660;28;20101;-74
2022/04/29 10:59:09;;;;;;;7.47;1.80;;;10.20;99.90;;;;;;5110760;28;20675;-75
2022/04/29 11:01:36;;;;;;;6.20;1.85;;;10.20;99.90;;;;;;5103792;28;20050;-78
2022/04/29 11:04:07;;;;;;;4.25;2.10;;;10.20;99.90;;;;;;5111508;28;20040;-75
2022/04/29 11:06:38;;;;;;;4.35;2.20;;;10.20;99.90;;;;;;5111015;28;20031;-77
2022/04/29 11:09:26;;;;;;;3.83;1.92;;;10.20;99.90;;;;;;5093605;28;20379;-74
2022/04/29 11:11:53;;;;;;;8.15;2.00;;;10.20;99.90;;;;;;5110281;28;20044;-74
2022/04/29 11:14:18;;;;;;;4.88;2.80;;;10.20;99.90;;;;;;5112340;28;20055;-75
2022/04/29 11:16:57;;;;;;;6.97;2.45;;;10.30;99.90;;;;;;5110253;28;20483;-77
2022/04/29 11:19:27;;;;;;;5.47;2.10;;;10.30;99.90;;;;;;5110779;28;20091;-79
2022/04/29 11:24:46;;;;;;;4.07;1.75;;;10.40;99.90;;;;;;5104317;28;20045;-78
2022/04/29 11:27:13;;;;;;;43.33;6.22;;;10.40;99.90;;;;;;5110233;28;20197;-72
2022/04/29 11:29:43;;;;;;;17.15;3.38;;;10.40;99.90;;;;;;5111743;28;20043;-71
2022/04/29 11:32:09;;;;;;;16.92;3.28;;;10.40;99.90;;;;;;5109099;28;20387;-75
2022/04/29 11:34:35;;;;;;;8.05;1.55;;;10.50;99.90;;;;;;5105537;28;20039;-75
2022/04/29 11:37:01;;;;;;;3.13;1.33;;;10.50;99.90;;;;;;5109784;28;20035;-72
2022/04/29 11:39:26;;;;;;;6.47;1.48;;;10.50;99.90;;;;;;5115697;27;20509;-75
2022/04/29 11:41:59;;;;;;;4.28;1.85;;;10.60;99.90;;;;;;5111069;28;20044;-70
2022/04/29 11:44:39;;;;;;;3.15;1.65;;;10.60;99.90;;;;;;5113088;28;20553;-73
2022/04/29 11:47:05;;;;;;;7.47;1.83;;;10.60;99.90;;;;;;5111539;28;20039;-70
2022/04/29 11:49:32;;;;;;;6.30;2.63;;;10.60;99.90;;;;;;5112288;27;20093;-71
2022/04/29 11:52:16;;;;;;;3.25;2.10;;;10.60;99.90;;;;;;5111321;28;20039;-74
2022/04/29 11:54:55;;;;;;;4.88;2.17;;;10.60;99.90;;;;;;5105059;28;20495;-76
2022/04/29 11:57:22;;;;;;;5.78;1.83;;;10.60;99.90;;;;;;5099352;28;20047;-78
2022/04/29 11:59:48;;;;;;;4.22;2.17;;;10.70;99.90;;;;;;5111589;28;20039;-76
2022/04/29 12:02:22;;;;;;;3.60;2.47;;;10.70;99.90;;;;;;5111396;28;20411;-77
2022/04/29 12:04:56;;;;;;;7.78;2.67;;;10.70;99.90;;;;;;5111053;27;20039;-74
2022/04/29 12:07:23;;;;;;;8.98;2.97;;;10.70;99.90;;;;;;5109689;28;20039;-78
2022/04/29 12:09:49;;;;;;;3.33;1.52;;;10.70;99.90;;;;;;5102784;28;20036;-79
2022/04/29 12:12:31;;;;;;;2.70;1.27;;;12.00;99.90;;;;;;5094406;28;20051;-75
2022/04/29 12:14:59;;;;;;;3.60;1.70;;;10.80;99.90;;;;;;5110924;28;20043;-80
2022/04/29 12:17:58;;;;;;;2.97;1.58;;;10.80;99.90;;;;;;5105057;28;20051;-74
2022/04/29 12:20:24;;;;;;;3.22;1.40;;;10.90;99.90;;;;;;5103032;28;20070;-74
2022/04/29 12:22:51;;;;;;;7.07;2.03;;;12.10;99.90;;;;;;5106250;28;20028;-78
2022/04/29 12:25:20;;;;;;;3.17;1.75;;;11.80;99.90;;;;;;5093765;28;20075;-78
2022/04/29 12:27:46;;;;;;;9.63;2.05;;;10.90;99.90;;;;;;5110367;28;20099;-79
2022/04/29 12:36:07;;;;;;;2.85;1.80;;;11.00;99.90;;;;;;5106748;28;20055;-77
2022/04/29 12:38:34;;;;;;;5.38;1.73;;;11.10;99.90;;;;;;5111076;28;20051;-78
2022/04/29 12:41:15;;;;;;;4.00;1.83;;;11.20;99.90;;;;;;5093015;28;20096;-79
2022/04/29 12:43:42;;;;;;;4.15;2.03;;;11.20;99.90;;;;;;5103326;28;20039;-80
2022/04/29 12:46:34;;;;;;;4.57;1.58;;;11.20;99.90;;;;;;5092952;28;20565;-80
2022/04/29 12:49:00;;;;;;;2.42;1.70;;;11.20;99.90;;;;;;5105086;28;20051;-73
2022/04/29 12:51:33;;;;;;;5.32;1.63;;;11.20;99.90;;;;;;5093393;28;20052;-78
2022/04/29 12:54:07;;;;;;;3.90;1.50;;;11.20;99.90;;;;;;5111119;28;20036;-78
2022/04/29 12:56:34;;;;;;;6.63;1.35;;;11.20;99.90;;;;;;5112365;28;20058;-79
2022/04/29 12:59:03;;;;;;;4.57;1.52;;;10.40;99.90;;;;;;5110424;28;20074;-77
2022/04/29 13:01:39;;;;;;;3.85;1.80;;;11.20;99.90;;;;;;5093026;28;20039;-79
2022/04/29 13:04:06;;;;;;;3.53;1.60;;;11.10;99.90;;;;;;5110023;28;20055;-76
2022/04/29 13:06:32;;;;;;;5.40;1.40;;;11.10;99.90;;;;;;5110694;28;20511;-79
2022/04/29 13:08:58;;;;;;;4.68;2.05;;;11.20;99.90;;;;;;5110144;28;20047;-75
2022/04/29 13:11:25;;;;;;;5.35;1.25;;;11.20;99.90;;;;;;5110812;28;20062;-79
2022/04/29 13:13:52;;;;;;;5.78;2.17;;;11.20;99.90;;;;;;5092804;28;20100;-79
2022/04/29 13:16:19;;;;;;;6.05;1.67;;;11.00;99.90;;;;;;5110092;28;20043;-80
2022/04/29 13:18:45;;;;;;;3.63;1.73;;;11.10;99.90;;;;;;5109133;28;20050;-79
2022/04/29 13:21:12;;;;;;;5.57;1.45;;;11.10;99.90;;;;;;5106643;28;20099;-80
2022/04/29 13:23:42;;;;;;;2.03;1.50;;;11.10;99.90;;;;;;5111404;28;20464;-79
2022/04/29 13:26:09;;;;;;;2.50;1.13;;;11.10;99.90;;;;;;5110139;28;20110;-79